Time;durP1;ratioP1;P1;durP2;ratioP2;P2;SDS_P1;SDS_P2;PMS_P1;PMS_P2;Temp;Humidity;BMP_temperature;BMP_pressure;BME280_temperature;BME280_humidity;BME280_pressure;Samples;Min_cycle;Max_cycle;Signal;HPM_P1;HPM_P2
2022/10/16 00:02:22;;;;;;;8.68;1.33;;;;;;;14.65;100.00;98854.72;5070842;28;20533;-76
2022/10/16 00:04:50;;;;;;;3.38;1.30;;;;;;;14.72;100.00;98871.91;5084370;28;20050;-76
2022/10/16 00:07:16;;;;;;;4.82;1.60;;;;;;;14.61;100.00;98850.75;5061643;28;20132;-76
2022/10/16 00:09:43;;;;;;;8.48;1.23;;;;;;;14.68;100.00;98849.66;5063034;28;20048;-76
2022/10/16 00:12:10;;;;;;;11.43;1.33;;;;;;;14.60;100.00;98849.03;5052948;28;20049;-76
2022/10/16 00:14:36;;;;;;;1.83;1.30;;;;;;;14.54;100.00;98842.53;5058276;28;20135;-76
2022/10/16 00:17:03;;;;;;;4.25;1.02;;;;;;;14.56;100.00;98843.16;5057510;28;20087;-76
2022/10/16 00:19:30;;;;;;;5.70;1.27;;;;;;;14.70;100.00;98857.63;5064453;28;20105;-76
2022/10/16 00:21:58;;;;;;;5.13;2.03;;;;;;;14.55;100.00;98835.19;5060007;28;20136;-76
2022/10/16 00:24:24;;;;;;;4.57;1.20;;;;;;;14.55;100.00;98835.19;5065832;28;20075;-76
2022/10/16 00:26:51;;;;;;;2.30;1.15;;;;;;;14.60;100.00;98847.16;5064479;28;20048;-76
2022/10/16 00:29:18;;;;;;;1.23;0.90;;;;;;;14.71;100.00;98844.78;5055195;28;20053;-76
2022/10/16 00:31:45;;;;;;;8.65;2.22;;;;;;;14.75;100.00;98840.56;5062983;28;20090;-76
2022/10/16 00:34:11;;;;;;;1.85;1.58;;;;;;;14.71;100.00;98850.25;5066239;28;20124;-76
2022/10/16 00:36:38;;;;;;;4.07;1.02;;;;;;;14.66;100.00;98837.25;5074277;28;20451;-76
2022/10/16 00:39:06;;;;;;;1.63;1.30;;;;;;;14.83;100.00;98859.47;5071027;28;20049;-76
2022/10/16 00:41:33;;;;;;;5.68;1.25;;;;;;;14.72;100.00;98852.78;5051598;28;20131;-76
2022/10/16 00:44:01;;;;;;;7.05;1.27;;;;;;;14.84;100.00;98863.84;5051508;28;20048;-76
2022/10/16 00:46:30;;;;;;;3.53;1.00;;;;;;;14.79;100.00;98871.91;5064332;28;20495;-76
2022/10/16 00:49:02;;;;;;;2.03;1.25;;;;;;;14.66;100.00;98848.19;5056792;28;20044;-76
2022/10/16 00:51:33;;;;;;;1.52;1.20;;;;;;;14.87;100.00;98882.56;5060990;28;20397;-76
2022/10/16 00:54:00;;;;;;;3.45;1.13;;;;;;;14.92;100.00;98876.44;5063899;28;20407;-76
2022/10/16 00:56:29;;;;;;;7.90;1.40;;;;;;;14.94;100.00;98874.34;5079157;28;20080;-76
2022/10/16 00:58:55;;;;;;;4.82;0.90;;;;;;;14.86;100.00;98865.31;5067180;28;20148;-76
2022/10/16 01:01:22;;;;;;;8.05;1.10;;;;;;;14.87;100.00;98863.41;5079795;28;20139;-76
2022/10/16 01:03:49;;;;;;;1.45;1.02;;;;;;;14.91;100.00;98861.94;5056712;28;20153;-76
2022/10/16 01:06:24;;;;;;;2.45;1.13;;;;;;;14.91;100.00;98863.84;5068810;28;20143;-76
2022/10/16 01:09:04;;;;;;;5.00;1.83;;;;;;;14.85;100.00;98868.28;5083687;28;20083;-76
2022/10/16 01:11:39;;;;;;;2.72;1.17;;;;;;;14.75;100.00;98862.44;5091180;28;20144;-76
2022/10/16 01:14:16;;;;;;;5.55;1.52;;;;;;;14.77;100.00;98876.72;5069494;28;20049;-76
2022/10/16 01:16:50;;;;;;;4.35;1.33;;;;;;;14.76;100.00;98877.81;5075926;28;20071;-76
2022/10/16 01:19:26;;;;;;;1.60;1.23;;;;;;;14.83;100.00;98876.72;5053318;28;23319;-76
2022/10/16 01:21:54;;;;;;;8.77;1.70;;;;;;;14.72;100.00;98855.50;5071012;28;20148;-76
2022/10/16 01:24:32;;;;;;;3.08;1.38;;;;;;;14.66;100.00;98861.84;5065512;28;20132;-76
2022/10/16 01:27:09;;;;;;;3.22;1.48;;;;;;;14.69;100.00;98848.59;5081042;28;20048;-76
2022/10/16 01:29:42;;;;;;;7.38;1.50;;;;;;;14.88;100.00;98867.84;5092212;28;20246;-76
2022/10/16 01:32:15;;;;;;;4.93;1.33;;;;;;;14.86;100.00;98865.31;5091038;28;20058;-76
2022/10/16 01:34:48;;;;;;;3.53;1.35;;;;;;;14.73;100.00;98843.50;5076657;28;20132;-76
2022/10/16 01:37:28;;;;;;;2.38;0.90;;;;;;;14.80;100.00;98862.66;5078714;28;20043;-76
2022/10/16 01:39:59;;;;;;;3.53;1.15;;;;;;;14.69;100.00;98854.06;5068865;28;20145;-76
2022/10/16 01:42:33;;;;;;;7.55;1.52;;;;;;;14.85;100.00;98887.44;5078087;28;20546;-76
2022/10/16 01:45:02;;;;;;;2.80;1.23;;;;;;;14.83;100.00;98873.16;5065857;28;20488;-76
2022/10/16 01:47:32;;;;;;;5.93;1.60;;;;;;;14.86;100.00;98876.28;5083267;28;20051;-76
2022/10/16 01:50:01;;;;;;;3.40;1.60;;;;;;;14.73;100.00;98862.66;5079234;28;20048;-76
2022/10/16 01:52:30;;;;;;;7.00;1.42;;;;;;;14.86;100.00;98879.00;5067548;28;20128;-76
2022/10/16 01:55:00;;;;;;;8.27;1.42;;;;;;;14.91;100.00;98867.41;5055245;28;20059;-76
2022/10/16 01:57:30;;;;;;;2.85;1.40;;;;;;;14.81;100.00;98869.78;5079338;28;20055;-76
2022/10/16 02:00:02;;;;;;;5.03;1.02;;;;;;;14.77;100.00;98869.38;5071113;28;20075;-76
2022/10/16 02:02:32;;;;;;;3.80;1.52;;;;;;;14.72;100.00;98871.09;5070499;28;20102;-76
2022/10/16 02:05:02;;;;;;;6.00;1.10;;;;;;;14.75;100.00;98856.97;5066001;28;20060;-76
2022/10/16 02:07:29;;;;;;;3.80;1.60;;;;;;;14.76;100.00;98861.41;5082268;28;20044;-76
2022/10/16 02:09:56;;;;;;;2.42;1.20;;;;;;;14.67;100.00;98845.22;5071859;28;20106;-76
2022/10/16 02:12:29;;;;;;;3.83;1.15;;;;;;;14.74;100.00;98852.56;5063270;28;20484;-76
2022/10/16 02:14:56;;;;;;;2.42;0.90;;;;;;;14.63;100.00;98830.31;5060023;28;20102;-76
2022/10/16 02:17:23;;;;;;;4.32;0.90;;;;;;;14.72;100.00;98839.09;5077426;28;20051;-76
2022/10/16 02:19:53;;;;;;;5.50;1.17;;;;;;;14.78;100.00;98857.34;5076833;28;20076;-76
2022/10/16 02:22:26;;;;;;;3.70;1.15;;;;;;;14.76;100.00;98854.00;5053605;28;20080;-76
2022/10/16 02:24:57;;;;;;;4.15;1.38;;;;;;;14.80;100.00;98862.66;5048353;28;20163;-76
2022/10/16 02:27:34;;;;;;;10.32;3.72;;;;;;;14.87;100.00;98871.63;5069364;28;20049;-76
2022/10/16 02:30:07;;;;;;;6.28;1.40;;;;;;;14.84;100.00;98856.50;5058629;28;20416;-76
2022/10/16 02:32:35;;;;;;;5.15;1.05;;;;;;;14.91;100.00;98878.34;5050187;28;20060;-76
2022/10/16 02:35:03;;;;;;;2.75;0.82;;;;;;;14.93;100.00;98869.91;5055493;28;20067;-76
2022/10/16 02:37:30;;;;;;;5.38;1.35;;;;;;;14.94;100.00;98874.34;5062937;28;20066;-76
2022/10/16 02:39:59;;;;;;;2.95;1.25;;;;;;;14.84;100.00;98864.72;5066601;28;20045;-76
2022/10/16 02:42:33;;;;;;;3.85;1.08;;;;;;;14.95;100.00;98860.44;5066878;28;20456;-76
2022/10/16 02:45:00;;;;;;;2.55;1.00;;;;;;;14.96;100.00;98874.94;5073168;28;20699;-76
2022/10/16 02:47:26;;;;;;;4.03;1.20;;;;;;;14.91;100.00;98877.53;5061087;28;20045;-76
2022/10/16 02:49:53;;;;;;;2.78;1.10;;;;;;;14.85;100.00;98863.63;5068341;28;20048;-76
2022/10/16 02:52:19;;;;;;;9.23;1.25;;;;;;;14.85;100.00;98871.84;5080953;28;20122;-76
2022/10/16 02:54:46;;;;;;;3.10;1.42;;;;;;;14.80;100.00;98862.66;5073926;28;20428;-76
2022/10/16 02:57:12;;;;;;;2.95;1.17;;;;;;;14.84;100.00;98883.00;5067463;28;20044;-76
2022/10/16 02:59:40;;;;;;;6.07;1.30;;;;;;;14.85;100.00;98876.50;5069477;28;20127;-76
2022/10/16 03:02:07;;;;;;;1.92;1.33;;;;;;;14.78;100.00;98856.53;5070531;28;20067;-76
2022/10/16 03:04:34;;;;;;;4.20;1.70;;;;;;;14.86;100.00;98875.44;5080306;28;20553;-76
2022/10/16 03:07:00;;;;;;;1.98;1.10;;;;;;;14.76;100.00;98875.06;5063620;28;20048;-76
2022/10/16 03:09:27;;;;;;;2.92;1.33;;;;;;;14.80;100.00;98881.81;5074944;28;20044;-76
2022/10/16 03:11:53;;;;;;;5.63;1.23;;;;;;;14.80;100.00;98892.75;5080243;28;20495;-76
2022/10/16 03:14:20;;;;;;;5.65;1.20;;;;;;;14.62;100.00;98872.41;5088879;28;20048;-76
2022/10/16 03:16:48;;;;;;;4.15;1.20;;;;;;;14.71;100.00;98897.63;5065225;28;20107;-76
2022/10/16 03:19:14;;;;;;;1.30;0.98;;;;;;;14.66;100.00;98895.56;5071697;28;20055;-76
2022/10/16 03:21:41;;;;;;;7.35;1.08;;;;;;;14.56;100.00;98875.13;5069724;28;20052;-76
2022/10/16 03:24:07;;;;;;;0.80;0.80;;;;;;;14.50;100.00;98877.69;5082102;28;20158;-76
2022/10/16 03:26:34;;;;;;;2.70;1.02;;;;;;;14.52;100.00;98881.03;5065224;28;20044;-76
2022/10/16 03:29:02;;;;;;;5.15;1.10;;;;;;;14.54;100.00;98882.72;5071241;28;20053;-76
2022/10/16 03:31:28;;;;;;;1.83;1.00;;;;;;;14.48;100.00;98874.34;5075648;28;20076;-76
2022/10/16 03:33:57;;;;;;;1.30;0.90;;;;;;;14.49;100.00;98886.94;5064228;28;20067;-76
2022/10/16 03:36:23;;;;;;;3.50;1.40;;;;;;;14.47;100.00;98891.81;5067281;28;20127;-76
2022/10/16 03:38:50;;;;;;;2.67;0.80;;;;;;;14.46;100.00;98894.75;5070539;28;20049;-76
2022/10/16 03:41:16;;;;;;;1.85;1.00;;;;;;;14.50;100.00;98887.81;5069997;28;20052;-76
2022/10/16 03:43:43;;;;;;;3.13;1.42;;;;;;;14.39;100.00;98878.38;5081890;28;20049;-76
2022/10/16 03:46:09;;;;;;;2.22;0.93;;;;;;;14.44;100.00;98885.94;5065428;28;20041;-76
2022/10/16 03:48:36;;;;;;;4.50;1.23;;;;;;;14.39;100.00;98881.13;5058743;28;20128;-76
2022/10/16 03:51:04;;;;;;;4.03;1.20;;;;;;;14.44;100.00;98897.72;5059522;28;20045;-76
2022/10/16 03:53:31;;;;;;;4.28;1.00;;;;;;;14.34;100.00;98887.22;5058755;28;20051;-76
2022/10/16 03:55:58;;;;;;;1.27;1.05;;;;;;;14.42;100.00;98902.56;5056305;28;20057;-76
2022/10/16 03:58:24;;;;;;;2.40;1.08;;;;;;;14.39;100.00;98896.66;5053638;28;20048;-76
2022/10/16 04:00:51;;;;;;;1.40;1.05;;;;;;;14.32;100.00;98878.41;5061339;28;20048;-76
2022/10/16 04:03:18;;;;;;;3.78;0.88;;;;;;;14.37;100.00;98890.59;5058458;28;20061;-76
2022/10/16 04:05:45;;;;;;;4.32;1.00;;;;;;;14.33;100.00;98895.63;5058309;28;20153;-76
2022/10/16 04:08:13;;;;;;;1.67;1.15;;;;;;;14.36;100.00;98887.00;5057381;28;20510;-76
2022/10/16 04:10:40;;;;;;;5.75;1.20;;;;;;;14.31;100.00;98881.34;5054972;28;20049;-76
2022/10/16 04:13:06;;;;;;;7.03;1.00;;;;;;;14.40;100.00;98896.47;5058298;28;20526;-76
2022/10/16 04:15:33;;;;;;;1.83;1.00;;;;;;;14.39;100.00;98886.59;5057453;28;20170;-76
2022/10/16 04:17:59;;;;;;;1.17;1.00;;;;;;;14.37;100.00;98891.41;5057061;28;20488;-76
2022/10/16 04:20:26;;;;;;;5.90;0.95;;;;;;;14.31;100.00;98892.28;5065053;28;20120;-76
2022/10/16 04:22:52;;;;;;;1.70;1.00;;;;;;;14.26;100.00;98890.19;5063058;28;20044;-76
2022/10/16 04:25:20;;;;;;;4.03;1.60;;;;;;;14.19;100.00;98880.34;5071101;28;20053;-76
2022/10/16 04:27:46;;;;;;;8.07;1.35;;;;;;;14.32;100.00;98902.19;5068487;28;20393;-76
2022/10/16 04:30:14;;;;;;;2.08;0.88;;;;;;;14.15;100.00;98888.97;5063085;28;20060;-76
2022/10/16 04:32:40;;;;;;;2.10;0.90;;;;;;;14.15;100.00;98886.25;5055122;28;20051;-76
2022/10/16 04:35:08;;;;;;;1.50;0.80;;;;;;;14.22;100.00;98888.13;5059728;28;20056;-76
2022/10/16 04:37:34;;;;;;;1.80;0.90;;;;;;;14.41;100.00;98900.06;5056976;28;20127;-76
2022/10/16 04:40:01;;;;;;;3.65;1.33;;;;;;;14.40;100.00;98898.34;5057208;28;20051;-76
2022/10/16 04:42:29;;;;;;;1.80;1.00;;;;;;;14.41;100.00;98916.47;5056332;28;20053;-76
2022/10/16 04:44:55;;;;;;;1.17;0.80;;;;;;;14.21;100.00;98903.69;5064284;28;20044;-76
2022/10/16 04:47:22;;;;;;;2.58;0.95;;;;;;;14.30;100.00;98924.28;5060968;28;20051;-76
2022/10/16 04:49:49;;;;;;;0.85;0.82;;;;;;;14.37;100.00;98931.59;5059043;28;20045;-76
2022/10/16 04:52:16;;;;;;;9.57;1.35;;;;;;;14.30;100.00;98923.41;5061138;28;20134;-76
2022/10/16 04:54:44;;;;;;;2.70;1.15;;;;;;;14.20;100.00;98920.31;5052032;28;20045;-76
2022/10/16 04:57:11;;;;;;;3.90;1.38;;;;;;;14.22;100.00;98919.03;5057686;28;20517;-76
2022/10/16 04:59:38;;;;;;;0.98;0.90;;;;;;;14.13;100.00;98937.53;5054749;28;20056;-76
2022/10/16 05:02:05;;;;;;;3.28;1.00;;;;;;;14.13;100.00;98923.03;5065045;28;20052;-76
2022/10/16 05:04:32;;;;;;;8.60;1.25;;;;;;;14.03;100.00;98928.09;5067086;28;20411;-76
2022/10/16 05:06:58;;;;;;;2.15;1.20;;;;;;;14.02;100.00;98940.13;5065493;28;20450;-76
2022/10/16 05:09:25;;;;;;;4.30;1.73;;;;;;;14.08;100.00;98947.47;5060328;28;20048;-76
2022/10/16 05:11:51;;;;;;;1.90;1.00;;;;;;;13.99;100.00;98939.47;5058518;28;20080;-76
2022/10/16 05:14:18;;;;;;;1.90;1.17;;;;;;;14.06;100.00;98942.22;5071231;28;20071;-76
2022/10/16 05:16:47;;;;;;;3.50;1.60;;;;;;;13.97;100.00;98929.78;5059660;28;20064;-76
2022/10/16 05:19:14;;;;;;;6.35;1.42;;;;;;;13.86;100.00;98927.72;5055386;28;20064;-76
2022/10/16 05:21:40;;;;;;;6.35;1.00;;;;;;;13.75;100.00;98912.81;5058054;28;20127;-75
2022/10/16 05:24:07;;;;;;;1.25;0.82;;;;;;;13.86;100.00;98938.66;5068314;28;20052;-76
2022/10/16 05:26:34;;;;;;;1.85;1.10;;;;;;;13.76;100.00;98919.94;5051885;28;20139;-76
2022/10/16 05:29:00;;;;;;;3.20;1.25;;;;;;;13.85;100.00;98924.16;5066916;28;20075;-76
2022/10/16 05:31:27;;;;;;;1.85;1.30;;;;;;;13.74;100.00;98920.16;5062340;28;20155;-76
2022/10/16 05:33:59;;;;;;;2.13;1.10;;;;;;;13.76;100.00;98915.34;5063171;28;20036;-76
2022/10/16 05:36:25;;;;;;;1.60;0.98;;;;;;;13.86;100.00;98936.75;5058580;28;20049;-76
2022/10/16 05:38:52;;;;;;;2.53;1.13;;;;;;;13.88;100.00;98939.28;5062438;28;20049;-76
2022/10/16 05:41:21;;;;;;;4.07;1.10;;;;;;;13.86;100.00;98930.44;5071049;28;20054;-76
2022/10/16 05:43:48;;;;;;;1.73;1.15;;;;;;;13.88;100.00;98951.06;5060272;28;20047;-76
2022/10/16 05:46:15;;;;;;;5.45;1.20;;;;;;;13.87;100.00;98934.88;5061250;28;20711;-76
2022/10/16 05:48:42;;;;;;;4.50;1.10;;;;;;;13.93;100.00;98953.97;5060085;28;20058;-76
2022/10/16 05:51:13;;;;;;;4.72;1.35;;;;;;;13.86;100.00;98944.94;5073226;28;20192;-76
2022/10/16 05:53:41;;;;;;;5.43;1.50;;;;;;;13.81;100.00;98944.75;5062737;28;20067;-76
2022/10/16 05:56:10;;;;;;;5.35;1.27;;;;;;;13.75;100.00;98935.50;5062908;28;20054;-76
2022/10/16 05:58:40;;;;;;;4.07;1.15;;;;;;;13.71;100.00;98936.13;5055020;28;20144;-76
2022/10/16 06:01:10;;;;;;;1.50;1.13;;;;;;;13.69;100.00;98936.34;5064663;28;20131;-76
2022/10/16 06:03:36;;;;;;;;;;;;;;;13.83;100.00;98963.66;5062948;28;20515;-76
2022/10/16 06:06:10;;;;;;;1.15;0.90;;;;;;;13.81;100.00;98969.34;5066179;28;19931;-76
2022/10/16 06:08:37;;;;;;;3.58;0.98;;;;;;;13.65;100.00;98942.44;5064588;28;20484;-76
2022/10/16 06:11:04;;;;;;;8.43;1.17;;;;;;;13.73;100.00;98967.66;5067247;28;20052;-76
2022/10/16 06:13:31;;;;;;;12.70;1.08;;;;;;;13.80;100.00;98979.44;5068217;28;20048;-76
2022/10/16 06:15:59;;;;;;;5.07;1.05;;;;;;;13.84;100.00;98981.75;5055233;28;20108;-76
2022/10/16 06:18:26;;;;;;;3.28;1.15;;;;;;;13.69;100.00;98963.66;5058234;28;20044;-76
2022/10/16 06:20:52;;;;;;;3.67;1.10;;;;;;;13.71;100.00;98966.19;5070459;28;20052;-76
2022/10/16 06:23:20;;;;;;;7.40;1.60;;;;;;;13.80;100.00;98970.38;5054014;28;20056;-76
2022/10/16 06:25:47;;;;;;;3.65;1.90;;;;;;;13.78;100.00;98967.03;5065078;28;20127;-76
2022/10/16 06:28:14;;;;;;;1.10;1.00;;;;;;;13.76;100.00;98959.03;5056644;28;20127;-76
2022/10/16 06:30:42;;;;;;;4.43;1.05;;;;;;;13.82;100.00;98973.75;5057457;28;20056;-76
2022/10/16 06:33:09;;;;;;;8.13;1.33;;;;;;;13.80;100.00;98970.38;5069285;28;20049;-76
2022/10/16 06:35:35;;;;;;;3.20;1.00;;;;;;;14.00;100.00;98959.47;5069135;28;20054;-76
2022/10/16 06:38:02;;;;;;;3.78;1.00;;;;;;;14.05;100.00;98956.09;5058708;28;20098;-76
2022/10/16 06:40:30;;;;;;;25.80;2.13;;;;;;;14.13;100.00;98973.06;5064664;28;20062;-76
2022/10/16 06:42:57;;;;;;;4.68;0.85;;;;;;;14.20;100.00;98975.00;5072434;28;20468;-76
2022/10/16 06:45:23;;;;;;;3.63;1.08;;;;;;;14.18;100.00;98974.34;5074920;28;20065;-76
2022/10/16 06:47:50;;;;;;;18.45;3.35;;;;;;;14.26;100.00;98976.88;5062930;28;20407;-76
2022/10/16 06:50:16;;;;;;;1.90;0.60;;;;;;;14.29;100.00;98977.25;5059419;28;20044;-76
2022/10/16 06:52:43;;;;;;;4.28;1.00;;;;;;;14.49;100.00;98982.69;5071503;28;20044;-76
2022/10/16 06:55:09;;;;;;;7.00;0.80;;;;;;;14.55;100.00;98993.84;5079269;28;20496;-76
2022/10/16 06:57:37;;;;;;;2.70;0.63;;;;;;;14.52;100.00;98982.25;5057760;28;20052;-76
2022/10/16 07:00:05;;;;;;;7.22;1.00;;;;;;;14.76;100.00;99011.91;5057356;28;20085;-76
2022/10/16 07:02:31;;;;;;;6.13;2.10;;;;;;;14.79;100.00;99022.41;5070278;28;20508;-76
2022/10/16 07:04:58;;;;;;;1.58;0.82;;;;;;;14.89;100.00;99025.53;5054651;28;20047;-76
2022/10/16 07:07:26;;;;;;;5.90;1.27;;;;;;;14.86;100.00;99018.59;5058083;28;20040;-76
2022/10/16 07:09:53;;;;;;;1.50;1.33;;;;;;;15.00;100.00;99035.78;5068499;28;20048;-76
2022/10/16 07:12:19;;;;;;;3.05;1.08;;;;;;;15.11;100.00;99036.16;5069356;28;20059;-77
2022/10/16 07:14:47;;;;;;;5.78;1.25;;;;;;;15.07;100.00;99023.97;5068288;28;20041;-77
2022/10/16 07:17:13;;;;;;;5.30;1.05;;;;;;;14.96;100.00;99011.81;5062056;28;20068;-77
2022/10/16 07:19:40;;;;;;;2.92;1.02;;;;;;;15.09;100.00;99035.56;5055340;28;20131;-76
2022/10/16 07:22:07;;;;;;;4.95;1.00;;;;;;;15.10;100.00;99039.97;5052106;28;20128;-76
2022/10/16 07:24:33;;;;;;;1.55;1.10;;;;;;;14.97;100.00;99028.00;5055913;28;20056;-76
2022/10/16 07:27:00;;;;;;;3.13;1.42;;;;;;;14.90;100.00;99037.31;5053050;28;20057;-76
2022/10/16 07:29:26;;;;;;;4.45;1.00;;;;;;;14.99;100.00;99056.00;5047080;28;20409;-77
2022/10/16 07:31:54;;;;;;;1.98;1.40;;;;;;;14.85;100.00;99035.22;5050860;28;20135;-76
2022/10/16 07:34:22;;;;;;;7.00;1.00;;;;;;;14.92;100.00;99046.13;5056295;28;20128;-76
2022/10/16 07:36:50;;;;;;;1.45;0.93;;;;;;;14.98;100.00;99056.22;5050284;28;20141;-76
2022/10/16 07:39:17;;;;;;;4.60;1.08;;;;;;;14.96;100.00;99053.69;5057885;28;20064;-76
2022/10/16 07:41:43;;;;;;;2.35;1.20;;;;;;;14.85;100.00;99041.53;5058698;28;20041;-76
2022/10/16 07:44:10;;;;;;;6.53;1.15;;;;;;;14.97;100.00;99060.03;5057078;28;20053;-76
2022/10/16 07:46:37;;;;;;;3.22;1.00;;;;;;;14.87;100.00;99041.31;5061798;28;20140;-76
2022/10/16 07:49:05;;;;;;;0.65;0.65;;;;;;;15.02;100.00;99061.06;5056804;28;20041;-76
2022/10/16 07:51:32;;;;;;;6.80;1.00;;;;;;;15.00;100.00;99059.59;5065478;28;20052;-76
2022/10/16 07:53:58;;;;;;;2.45;1.05;;;;;;;14.91;100.00;99067.19;5048580;28;20511;-76
2022/10/16 07:56:25;;;;;;;7.03;1.08;;;;;;;14.91;100.00;99067.19;5051017;28;20049;-76
2022/10/16 07:58:52;;;;;;;2.22;0.98;;;;;;;14.95;100.00;99070.34;5059048;28;20068;-76
2022/10/16 08:01:19;;;;;;;2.70;0.80;;;;;;;14.92;100.00;99063.41;5063372;28;20297;-76
2022/10/16 08:03:47;;;;;;;6.78;1.08;;;;;;;15.09;100.00;99082.09;5050047;28;20059;-76
2022/10/16 08:06:16;;;;;;;2.55;1.00;;;;;;;15.17;100.00;99073.63;5051771;28;20504;-76
2022/10/16 08:08:42;;;;;;;2.92;0.90;;;;;;;15.11;100.00;99072.59;5060278;28;20377;-76
2022/10/16 08:11:10;;;;;;;4.70;0.85;;;;;;;15.32;100.00;99085.13;5058713;28;20045;-76
2022/10/16 08:13:36;;;;;;;5.20;1.30;;;;;;;15.41;100.00;99083.00;5049464;28;20049;-76
2022/10/16 08:16:07;;;;;;;3.70;1.20;;;;;;;15.49;100.00;99082.75;5049921;28;20095;-76
2022/10/16 08:18:35;;;;;;;4.43;1.30;;;;;;;15.61;100.00;99076.56;5060299;28;20412;-76
2022/10/16 08:21:02;;;;;;;3.70;1.23;;;;;;;15.81;100.00;99093.78;5058843;28;20056;-76
2022/10/16 08:23:30;;;;;;;11.80;2.22;;;;;;;15.95;100.00;99088.19;5053678;28;20052;-76
2022/10/16 08:26:03;;;;;;;1.33;1.02;;;;;;;16.15;100.00;99090.78;5070540;28;20113;-76
2022/10/16 08:28:29;;;;;;;4.25;1.30;;;;;;;16.42;100.00;99094.13;5064844;28;20068;-76
2022/10/16 08:30:56;;;;;;;1.98;1.00;;;;;;;16.52;100.00;99094.47;5072993;28;20192;-76
2022/10/16 08:33:23;;;;;;;1.88;1.00;;;;;;;16.68;100.00;99097.69;5069534;28;20110;-76
2022/10/16 08:35:55;;;;;;;2.88;1.08;;;;;;;16.77;100.00;99099.94;5069712;28;20053;-76
2022/10/16 08:38:22;;;;;;;3.65;1.17;;;;;;;16.93;100.00;99109.50;5059194;28;20403;-75
2022/10/16 08:40:50;;;;;;;4.55;1.05;;;;;;;17.20;100.00;99100.13;5062814;28;20052;-76
2022/10/16 08:43:34;;;;;;;1.77;0.80;;;;;;;17.30;100.00;99104.00;5064764;28;20055;-76
2022/10/16 08:46:23;;;;;;;2.05;1.10;;;;;;;17.45;100.00;99119.28;5049610;28;20049;-76
2022/10/16 08:48:52;;;;;;;2.30;0.90;;;;;;;17.47;100.00;99128.13;5056998;28;20094;-76
2022/10/16 08:51:22;;;;;;;1.48;0.80;;;;;;;17.58;100.00;99127.31;5063778;28;20456;-76
2022/10/16 08:53:54;;;;;;;3.65;1.00;;;;;;;17.51;100.00;99115.59;5053373;28;20122;-77
2022/10/16 08:56:23;;;;;;;1.38;0.80;;;;;;;17.44;100.00;99114.84;5052957;28;20048;-76
2022/10/16 08:58:51;;;;;;;1.25;0.90;;;;;;;17.43;100.00;99094.78;5053970;28;20550;-76
2022/10/16 09:01:20;;;;;;;1.33;1.15;;;;;;;17.45;100.00;99127.53;5068865;28;20055;-76
2022/10/16 09:04:10;;;;;;;1.92;0.85;;;;;;;17.36;100.00;99096.75;5063242;28;20489;-76
2022/10/16 09:06:46;;;;;;;1.20;0.88;;;;;;;17.32;100.00;99121.09;5058136;28;20047;-76
2022/10/16 09:09:35;;;;;;;4.93;0.80;;;;;;;17.38;100.00;99118.50;5057713;28;20045;-76
2022/10/16 09:12:13;;;;;;;1.50;1.00;;;;;;;17.22;100.00;99118.03;5061260;28;20083;-76
2022/10/16 09:14:52;;;;;;;6.97;1.27;;;;;;;17.20;100.00;99114.69;5060774;28;20053;-76
2022/10/16 09:17:29;;;;;;;0.93;0.73;;;;;;;17.27;100.00;99131.13;5060019;28;20052;-77
2022/10/16 09:20:04;;;;;;;1.30;0.80;;;;;;;17.22;100.00;99129.03;5056299;28;20499;-76
2022/10/16 09:22:33;;;;;;;1.75;1.00;;;;;;;17.13;100.00;99112.03;5067896;28;20048;-76
2022/10/16 09:25:10;;;;;;;3.15;1.13;;;;;;;17.26;100.00;99123.94;5060577;28;20044;-76
2022/10/16 09:27:45;;;;;;;2.53;1.20;;;;;;;17.42;100.00;99145.31;5057119;28;20401;-77
2022/10/16 09:30:14;;;;;;;12.82;4.00;;;;;;;17.54;100.00;99130.75;5050850;28;20045;-76
2022/10/16 09:32:42;;;;;;;1.38;1.00;;;;;;;17.58;100.00;99132.00;5063420;28;20049;-76
2022/10/16 09:35:16;;;;;;;5.18;1.17;;;;;;;17.84;100.00;99137.13;5068666;28;20084;-77
2022/10/16 09:37:43;;;;;;;7.63;0.93;;;;;;;17.89;100.00;99130.09;5053594;28;20056;-77
2022/10/16 09:40:14;;;;;;;1.88;0.95;;;;;;;18.18;100.00;99158.69;5049186;28;20045;-77
2022/10/16 09:42:42;;;;;;;4.72;1.00;;;;;;;18.24;100.00;99162.41;5063938;28;20044;-78
2022/10/16 09:45:22;;;;;;;1.20;1.00;;;;;;;18.31;100.00;99171.41;5072108;28;20049;-77
2022/10/16 09:47:49;;;;;;;1.75;0.98;;;;;;;18.14;100.00;99138.19;5057294;28;20055;-77
2022/10/16 09:50:24;;;;;;;4.32;1.00;;;;;;;18.35;100.00;99150.56;5049712;28;20507;-78
2022/10/16 09:52:50;;;;;;;4.47;1.52;;;;;;;18.18;100.00;99155.94;5064099;28;20041;-77
2022/10/16 09:55:19;;;;;;;4.43;1.05;;;;;;;18.14;100.00;99147.31;5046868;28;20051;-78
2022/10/16 09:57:54;;;;;;;3.95;1.10;;;;;;;18.33;100.00;99177.50;5051790;28;20623;-78
2022/10/16 10:00:22;;;;;;;2.88;1.00;;;;;;;18.48;100.00;99166.88;5070609;28;20056;-78
2022/10/16 10:02:49;;;;;;;1.48;1.00;;;;;;;18.63;100.00;99162.84;5063633;28;20052;-78
2022/10/16 10:05:21;;;;;;;3.55;1.10;;;;;;;18.72;100.00;99158.66;5063116;28;20496;-78
2022/10/16 10:07:56;;;;;;;1.05;0.95;;;;;;;18.80;100.00;99160.22;5066758;28;20063;-78
2022/10/16 10:10:25;;;;;;;3.67;0.98;;;;;;;18.98;97.46;99173.88;5056731;28;20053;-78
2022/10/16 10:12:54;;;;;;;0.70;0.70;;;;;;;18.98;99.12;99173.88;5058478;28;20072;-77
2022/10/16 10:15:23;;;;;;;1.60;0.90;;;;;;;18.95;96.92;99177.13;5058542;28;20049;-78
2022/10/16 10:17:52;;;;;;;3.97;1.17;;;;;;;18.79;98.67;99170.41;5054219;28;20294;-77
2022/10/16 10:20:28;;;;;;;2.30;1.15;;;;;;;18.88;100.00;99201.22;5055379;28;20136;-78
2022/10/16 10:22:55;;;;;;;3.55;1.10;;;;;;;18.86;100.00;99184.06;5057511;28;20275;-78
2022/10/16 10:25:44;;;;;;;2.75;1.23;;;;;;;18.93;97.28;99171.84;5068894;28;20107;-78
2022/10/16 10:28:25;;;;;;;3.75;1.10;;;;;;;19.19;98.52;99183.47;5068576;28;20053;-78
2022/10/16 10:31:00;;;;;;;3.72;1.02;;;;;;;19.28;96.43;99182.03;5063288;28;20048;-78
2022/10/16 10:33:32;;;;;;;1.52;1.10;;;;;;;19.23;95.74;99168.13;5074492;28;20048;-78
2022/10/16 10:36:10;;;;;;;4.05;0.98;;;;;;;19.31;95.16;99177.94;5063383;28;20049;-78
2022/10/16 10:38:47;;;;;;;2.28;0.82;;;;;;;19.41;90.14;99182.84;5054205;28;20056;-78
2022/10/16 10:41:35;;;;;;;4.40;1.25;;;;;;;19.66;91.38;99193.59;5066181;28;20294;-78
2022/10/16 10:44:12;;;;;;;5.25;1.17;;;;;;;19.84;91.69;99192.59;5054471;28;20049;-78
2022/10/16 10:46:43;;;;;;;1.35;1.00;;;;;;;19.95;93.33;99185.38;5055643;28;20526;-78
2022/10/16 10:49:22;;;;;;;6.40;2.13;;;;;;;19.90;88.46;99175.09;5055847;28;20049;-78
2022/10/16 10:51:59;;;;;;;2.15;1.23;;;;;;;19.92;89.07;99174.84;5066937;28;20057;-78
2022/10/16 10:54:33;;;;;;;2.80;0.90;;;;;;;20.07;87.64;99185.34;5053694;28;20056;-78
2022/10/16 10:57:03;;;;;;;3.03;1.30;;;;;;;20.09;86.11;99188.66;5062000;28;20056;-78
2022/10/16 10:59:43;;;;;;;4.88;1.10;;;;;;;20.15;86.21;99193.19;5063891;28;20049;-78
2022/10/16 11:02:18;;;;;;;3.30;1.17;;;;;;;20.03;87.32;99173.09;5072003;28;20051;-78
2022/10/16 11:05:02;;;;;;;1.50;0.82;;;;;;;20.11;88.45;99167.19;5058853;28;20053;-78
2022/10/16 11:07:33;;;;;;;3.17;0.93;;;;;;;20.31;88.84;99186.88;5048209;28;20045;-78
2022/10/16 11:10:08;;;;;;;3.55;1.05;;;;;;;20.35;87.89;99181.69;5063734;28;20132;-78
2022/10/16 11:12:37;;;;;;;2.78;1.08;;;;;;;;;;5069309;28;20052;-78
2022/10/16 11:15:12;;;;;;;2.13;1.20;;;;;;;20.61;81.93;99174.69;5085902;28;20159;-78
2022/10/16 11:17:43;;;;;;;1.55;1.13;;;;;;;20.58;83.24;99158.63;5089890;28;20139;-78
2022/10/16 11:20:17;;;;;;;1.30;0.77;;;;;;;20.59;79.58;99164.97;5077640;28;20127;-78
2022/10/16 11:22:49;;;;;;;2.83;1.00;;;;;;;20.83;81.89;99182.25;5079276;28;20054;-78
2022/10/16 11:25:21;;;;;;;2.78;1.00;;;;;;;20.86;83.69;99173.47;5051984;28;20048;-78
2022/10/16 11:27:52;;;;;;;2.90;1.08;;;;;;;20.62;81.54;99159.78;5051747;28;20055;-78
2022/10/16 11:30:23;;;;;;;3.95;1.00;;;;;;;20.66;81.56;99160.16;5058795;28;20053;-78
2022/10/16 11:32:58;;;;;;;1.63;0.70;;;;;;;20.67;77.27;99162.69;5078434;28;20052;-78
2022/10/16 11:35:43;;;;;;;0.98;0.88;;;;;;;20.67;78.30;99150.78;5071650;28;20048;-78
2022/10/16 11:38:15;;;;;;;7.00;1.35;;;;;;;20.77;78.99;99161.16;5070857;28;20056;-78